createdAt,value
2023-04-14T00:00:47.644Z,6.70
2023-04-14T00:03:16.879Z,6.66
2023-04-14T00:05:44.640Z,6.69
2023-04-14T00:08:12.573Z,6.62
2023-04-14T00:10:40.193Z,6.60
2023-04-14T00:13:07.936Z,6.57
2023-04-14T00:15:37.060Z,6.58
2023-04-14T00:18:04.917Z,6.52
2023-04-14T00:20:32.559Z,6.45
2023-04-14T00:23:00.545Z,6.46
2023-04-14T00:25:28.097Z,6.59
2023-04-14T00:27:55.788Z,6.55
2023-04-14T00:30:23.541Z,6.59
2023-04-14T00:32:52.552Z,6.59
2023-04-14T00:35:20.775Z,6.50
2023-04-14T00:37:48.366Z,6.54
2023-04-14T00:40:16.399Z,6.57
2023-04-14T00:42:44.976Z,6.51
2023-04-14T00:45:13.669Z,6.54
2023-04-14T00:47:46.859Z,6.32
2023-04-14T00:50:17.890Z,6.33
2023-04-14T00:52:48.038Z,6.34
2023-04-14T00:55:18.909Z,6.25
2023-04-14T00:57:47.259Z,6.20
2023-04-14T01:00:15.726Z,6.15
2023-04-14T01:02:44.365Z,6.05
2023-04-14T01:05:12.775Z,6.27
2023-04-14T01:07:42.289Z,5.97
2023-04-14T01:10:11.271Z,6.12
2023-04-14T01:12:56.129Z,5.97
2023-04-14T01:15:31.258Z,5.78
2023-04-14T01:18:06.356Z,5.71
2023-04-14T01:20:41.738Z,5.47
2023-04-14T01:23:14.116Z,5.63
2023-04-14T01:26:06.284Z,5.64
2023-04-14T01:29:00.480Z,5.70
2023-04-14T01:31:35.430Z,5.85
2023-04-14T01:34:11.905Z,5.79
2023-04-14T01:36:43.095Z,5.51
2023-04-14T01:39:17.014Z,5.62
2023-04-14T01:41:49.107Z,5.62
2023-04-14T01:44:19.993Z,5.41
2023-04-14T01:46:51.262Z,5.70
2023-04-14T01:49:20.454Z,5.77
2023-04-14T01:51:49.953Z,5.82
2023-04-14T01:54:21.028Z,5.74
2023-04-14T01:56:52.065Z,5.74
2023-04-14T01:59:22.031Z,5.81
2023-04-14T02:01:52.337Z,5.98
2023-04-14T02:04:23.840Z,5.92
2023-04-14T02:06:52.750Z,5.85
2023-04-14T02:09:23.005Z,5.98
2023-04-14T02:11:52.572Z,6.01
2023-04-14T02:14:21.687Z,6.05
2023-04-14T02:16:53.687Z,6.02
2023-04-14T02:19:23.864Z,5.97
2023-04-14T02:21:53.330Z,5.86
2023-04-14T02:24:21.595Z,5.81
2023-04-14T02:26:55.949Z,5.74
2023-04-14T02:29:26.138Z,5.68
2023-04-14T02:32:00.932Z,5.80
2023-04-14T02:34:31.380Z,5.85
2023-04-14T02:37:03.810Z,5.69
2023-04-14T02:39:38.350Z,5.73
2023-04-14T02:42:13.787Z,5.62
2023-04-14T02:44:49.909Z,5.64
2023-04-14T02:47:25.014Z,5.49
2023-04-14T02:49:54.366Z,5.54
2023-04-14T02:52:25.628Z,5.51
2023-04-14T02:54:56.948Z,5.53
2023-04-14T02:57:26.668Z,5.48
2023-04-14T02:59:57.409Z,5.50
2023-04-14T03:02:28.699Z,5.52
2023-04-14T03:05:05.418Z,5.40
2023-04-14T03:07:45.694Z,5.25
2023-04-14T03:10:16.645Z,5.24
2023-04-14T03:12:46.324Z,5.24
2023-04-14T03:15:13.950Z,5.24
2023-04-14T03:17:44.601Z,5.27
2023-04-14T03:20:14.375Z,5.23
2023-04-14T03:22:44.093Z,5.08
2023-04-14T03:25:15.874Z,5.23
2023-04-14T03:27:47.957Z,5.25
2023-04-14T03:30:17.552Z,5.15
2023-04-14T03:32:50.613Z,5.28
2023-04-14T03:35:21.899Z,5.23
2023-04-14T03:37:51.694Z,5.18
2023-04-14T03:40:19.768Z,5.04
2023-04-14T03:42:50.733Z,5.23
2023-04-14T03:45:21.838Z,5.25
2023-04-14T03:47:53.415Z,5.22
2023-04-14T03:50:24.043Z,5.23
2023-04-14T03:52:55.053Z,5.31
2023-04-14T03:55:24.642Z,5.36
2023-04-14T03:57:53.079Z,5.45
2023-04-14T04:00:21.538Z,5.56
2023-04-14T04:02:51.557Z,5.58
2023-04-14T04:05:19.825Z,5.53
2023-04-14T04:07:49.006Z,5.48
2023-04-14T04:10:17.693Z,5.46
2023-04-14T04:12:48.730Z,5.51
2023-04-14T04:15:17.374Z,5.62
2023-04-14T04:17:46.399Z,5.65
2023-04-14T04:20:17.050Z,5.58
2023-04-14T04:22:51.461Z,5.52
2023-04-14T04:25:19.561Z,5.47
2023-04-14T04:27:55.996Z,5.41
2023-04-14T04:30:25.329Z,5.40
2023-04-14T04:32:53.059Z,5.45
2023-04-14T04:35:24.784Z,5.40
2023-04-14T04:37:53.458Z,5.34
2023-04-14T04:40:21.243Z,5.28
2023-04-14T04:42:51.286Z,5.33
2023-04-14T04:45:40.008Z,5.30
2023-04-14T04:48:08.404Z,5.24
2023-04-14T04:50:37.513Z,5.24
2023-04-14T04:53:05.334Z,5.31
2023-04-14T04:55:33.014Z,5.29
2023-04-14T04:58:00.959Z,5.45
2023-04-14T05:00:28.535Z,5.35
2023-04-14T05:02:56.686Z,5.35
2023-04-14T05:05:24.411Z,5.47
2023-04-14T05:07:53.463Z,5.29
2023-04-14T05:10:20.994Z,5.52
2023-04-14T05:12:48.695Z,5.48
2023-04-14T05:15:16.599Z,5.57
2023-04-14T05:17:44.599Z,5.42
2023-04-14T05:20:13.349Z,5.67
2023-04-14T05:22:40.921Z,5.69
2023-04-14T05:25:10.522Z,5.62
2023-04-14T05:27:38.274Z,5.67
2023-04-14T05:30:06.986Z,5.47
2023-04-14T05:32:34.735Z,5.40
2023-04-14T05:35:02.400Z,5.51
2023-04-14T05:37:30.982Z,5.56
2023-04-14T05:39:58.634Z,5.54
2023-04-14T05:42:27.810Z,5.77
2023-04-14T05:44:55.332Z,5.90
2023-04-14T05:47:23.049Z,5.94
2023-04-14T05:49:50.604Z,5.93
2023-04-14T05:52:18.195Z,6.10
2023-04-14T05:54:45.794Z,6.11
2023-04-14T05:57:13.583Z,6.11
2023-04-14T05:59:42.546Z,5.87
2023-04-14T06:02:10.291Z,6.02
2023-04-14T06:04:38.092Z,6.03
2023-04-14T06:07:06.067Z,5.79
2023-04-14T06:09:33.622Z,5.81
2023-04-14T06:12:01.429Z,5.67
2023-04-14T06:14:28.985Z,5.65
2023-04-14T06:16:58.276Z,5.83
2023-04-14T06:19:25.854Z,5.74
2023-04-14T06:21:53.407Z,5.86
2023-04-14T06:24:21.224Z,5.72
2023-04-14T06:26:48.783Z,5.74
2023-04-14T06:29:16.364Z,5.88
2023-04-14T06:31:44.045Z,5.64
2023-04-14T06:34:13.217Z,5.82
2023-04-14T06:36:41.127Z,5.82
2023-04-14T06:39:08.842Z,5.74
2023-04-14T06:41:36.434Z,6.03
2023-04-14T06:44:05.568Z,5.92
2023-04-14T06:46:35.913Z,6.13
2023-04-14T06:49:03.896Z,6.36
2023-04-14T06:51:34.081Z,6.38
2023-04-14T06:54:02.036Z,6.55
2023-04-14T06:56:29.847Z,6.57
2023-04-14T06:58:57.707Z,6.22
2023-04-14T07:01:25.452Z,6.48
2023-04-14T07:03:53.128Z,6.91
2023-04-14T07:06:20.813Z,6.95
2023-04-14T07:08:49.705Z,6.87
2023-04-14T07:11:17.387Z,6.74
2023-04-14T07:13:45.075Z,6.74
2023-04-14T07:16:12.935Z,6.93
2023-04-14T07:18:40.665Z,6.77
2023-04-14T07:21:08.233Z,6.59
2023-04-14T07:23:35.939Z,6.84
2023-04-14T07:26:05.112Z,6.88
2023-04-14T07:28:32.899Z,7.05
2023-04-14T07:31:01.150Z,6.92
2023-04-14T07:33:31.102Z,6.95
2023-04-14T07:36:03.487Z,7.01
2023-04-14T07:38:32.345Z,7.06
2023-04-14T07:41:00.202Z,6.68
2023-04-14T07:43:34.701Z,6.46
2023-04-14T07:46:09.713Z,6.69
2023-04-14T07:48:38.903Z,6.92
2023-04-14T07:51:06.933Z,7.17
2023-04-14T07:53:35.012Z,7.19
2023-04-14T07:56:02.678Z,7.02
2023-04-14T07:58:31.623Z,7.09
2023-04-14T08:00:59.537Z,7.42
2023-04-14T08:03:27.391Z,7.26
2023-04-14T08:05:55.481Z,7.17
2023-04-14T08:08:23.141Z,7.29
2023-04-14T08:10:51.090Z,7.44
2023-04-14T08:13:18.685Z,7.28
2023-04-14T08:15:47.871Z,7.45
2023-04-14T08:18:15.495Z,7.49
2023-04-14T08:20:43.125Z,7.83
2023-04-14T08:23:11.562Z,7.90
2023-04-14T08:25:39.526Z,8.09
2023-04-14T08:28:07.084Z,8.26
2023-04-14T08:30:34.926Z,7.98
2023-04-14T08:33:03.972Z,8.40
2023-04-14T08:35:40.051Z,8.43
2023-04-14T08:38:09.624Z,8.30
2023-04-14T08:40:39.295Z,8.19
2023-04-14T08:43:07.018Z,8.21
2023-04-14T08:45:35.660Z,8.35
2023-04-14T08:48:05.865Z,8.31
2023-04-14T08:50:37.664Z,8.52
2023-04-14T08:53:09.427Z,8.36
2023-04-14T08:55:40.318Z,8.19
2023-04-14T08:58:10.433Z,8.00
2023-04-14T09:00:38.886Z,8.26
2023-04-14T09:03:08.961Z,8.36
2023-04-14T09:05:37.413Z,8.30
2023-04-14T09:08:05.234Z,8.62
2023-04-14T09:10:33.286Z,8.56
2023-04-14T09:13:01.378Z,8.50
2023-04-14T09:15:29.374Z,8.49
2023-04-14T09:17:57.398Z,8.42
2023-04-14T09:20:38.990Z,8.46
2023-04-14T09:23:10.457Z,8.53
2023-04-14T09:25:39.583Z,8.57
2023-04-14T09:28:07.364Z,8.36
2023-04-14T09:30:35.628Z,8.51
2023-04-14T09:33:05.919Z,8.51
2023-04-14T09:35:47.309Z,8.60
2023-04-14T09:38:15.037Z,8.59
2023-04-14T09:40:44.104Z,8.39
2023-04-14T09:43:25.178Z,8.37
2023-04-14T09:45:53.121Z,8.46
2023-04-14T09:48:21.570Z,8.16
2023-04-14T09:51:01.585Z,8.74
2023-04-14T09:53:31.283Z,8.77
2023-04-14T09:56:02.436Z,9.61
2023-04-14T09:58:32.606Z,9.86
2023-04-14T10:01:00.555Z,9.76
2023-04-14T10:03:34.876Z,9.81
2023-04-14T10:06:05.664Z,9.69
2023-04-14T10:08:38.069Z,9.96
2023-04-14T10:11:17.223Z,10.32
2023-04-14T10:13:45.536Z,10.73
2023-04-14T10:16:13.592Z,10.71
2023-04-14T10:18:41.280Z,10.14
2023-04-14T10:21:11.485Z,10.03
2023-04-14T10:23:41.184Z,10.14
2023-04-14T10:26:10.462Z,10.17
2023-04-14T10:28:40.789Z,10.40
2023-04-14T10:31:13.202Z,10.29
2023-04-14T10:33:42.097Z,10.76
2023-04-14T10:36:11.537Z,10.71
2023-04-14T10:38:42.172Z,10.97
2023-04-14T10:41:10.285Z,10.86
2023-04-14T10:43:38.593Z,10.62
2023-04-14T10:46:09.782Z,11.04
2023-04-14T10:48:38.842Z,10.78
2023-04-14T10:51:09.022Z,10.79
2023-04-14T10:53:45.860Z,10.66
2023-04-14T10:56:14.309Z,11.27
2023-04-14T10:58:41.919Z,11.06
2023-04-14T11:01:32.318Z,11.07
2023-04-14T11:04:17.336Z,11.20
2023-04-14T11:06:53.498Z,11.28
2023-04-14T11:09:34.361Z,12.53
2023-04-14T11:12:24.131Z,13.01
2023-04-14T11:14:56.247Z,13.47
2023-04-14T11:17:24.504Z,13.38
2023-04-14T11:19:55.141Z,13.93
2023-04-14T11:22:38.913Z,13.39
2023-04-14T11:25:09.633Z,12.47
2023-04-14T11:27:39.388Z,12.61
2023-04-14T11:30:09.176Z,12.58
2023-04-14T11:32:51.193Z,12.10
2023-04-14T11:35:19.844Z,11.86
2023-04-14T11:37:47.809Z,13.26
2023-04-14T11:40:17.032Z,14.11
2023-04-14T11:42:46.783Z,13.57
2023-04-14T11:45:16.320Z,13.24
2023-04-14T11:47:48.987Z,13.27
2023-04-14T11:50:17.910Z,12.68
2023-04-14T11:52:51.094Z,12.35
2023-04-14T11:55:20.277Z,12.38
2023-04-14T11:57:48.948Z,12.08
2023-04-14T12:00:17.323Z,11.51
2023-04-14T12:02:45.597Z,11.13
2023-04-14T12:05:14.472Z,10.86
2023-04-14T12:07:44.482Z,11.08
2023-04-14T12:10:13.357Z,10.89
2023-04-14T12:12:42.707Z,10.91
2023-04-14T12:15:11.432Z,11.30
2023-04-14T12:17:39.243Z,11.44
2023-04-14T12:20:14.266Z,11.78
2023-04-14T12:22:42.117Z,11.32
2023-04-14T12:25:12.081Z,11.99
2023-04-14T12:27:39.968Z,11.77
2023-04-14T12:30:10.605Z,11.74
2023-04-14T12:32:42.079Z,12.41
2023-04-14T12:35:10.249Z,12.65
2023-04-14T12:37:38.784Z,12.91
2023-04-14T12:40:07.895Z,12.66
2023-04-14T12:42:47.305Z,13.24
2023-04-14T12:45:17.081Z,13.67
2023-04-14T12:47:54.120Z,13.91
2023-04-14T12:50:27.930Z,13.82
2023-04-14T12:52:56.052Z,15.05
2023-04-14T12:55:25.211Z,14.00
2023-04-14T12:57:54.325Z,13.63
2023-04-14T13:00:24.364Z,13.34
2023-04-14T13:02:52.202Z,12.70
2023-04-14T13:05:20.587Z,13.15
2023-04-14T13:07:48.303Z,14.12
2023-04-14T13:10:16.057Z,14.20
2023-04-14T13:12:44.052Z,14.20
2023-04-14T13:16:09.025Z,13.62
2023-04-14T13:18:01.233Z,14.31
2023-04-14T13:20:30.361Z,14.65
2023-04-14T13:22:57.937Z,14.71
2023-04-14T13:25:25.574Z,14.48
2023-04-14T13:27:53.121Z,13.36
2023-04-14T13:30:21.234Z,13.05
2023-04-14T13:32:48.849Z,12.62
2023-04-14T13:35:17.789Z,12.63
2023-04-14T13:37:45.399Z,12.89
2023-04-14T13:40:13.458Z,13.34
2023-04-14T13:42:41.020Z,13.78
2023-04-14T13:45:10.128Z,13.64
2023-04-14T13:47:37.752Z,13.71
2023-04-14T13:50:05.860Z,13.55
2023-04-14T13:52:35.703Z,13.57
2023-04-14T13:55:03.394Z,13.26
2023-04-14T13:57:31.413Z,13.17
2023-04-14T13:59:59.026Z,12.30
2023-04-14T14:02:26.812Z,12.06
2023-04-14T14:04:54.848Z,11.85
2023-04-14T14:07:22.430Z,11.76
2023-04-14T14:09:51.345Z,12.01
2023-04-14T14:12:19.050Z,12.33
2023-04-14T14:14:47.086Z,12.52
2023-04-14T14:17:14.681Z,12.59
2023-04-14T14:19:43.398Z,12.66
2023-04-14T14:22:11.065Z,12.82
2023-04-14T14:24:41.273Z,12.89
2023-04-14T14:27:10.301Z,12.91
2023-04-14T14:29:38.018Z,12.92
2023-04-14T14:32:05.693Z,12.86
2023-04-14T14:34:33.586Z,12.76
2023-04-14T14:37:01.227Z,12.75
2023-04-14T14:39:30.769Z,12.71
2023-04-14T14:41:58.344Z,12.28
2023-04-14T14:44:27.434Z,12.32
2023-04-14T14:46:55.240Z,12.29
2023-04-14T14:49:22.933Z,12.21
2023-04-14T14:51:50.692Z,12.14
2023-04-14T14:54:18.315Z,11.83
2023-04-14T14:56:45.879Z,12.22
2023-04-14T14:59:13.761Z,12.47
2023-04-14T15:01:42.891Z,12.81
2023-04-14T15:04:10.579Z,13.12
2023-04-14T15:06:38.557Z,13.67
2023-04-14T15:09:06.320Z,14.01
2023-04-14T15:11:34.370Z,14.24
2023-04-14T15:14:02.167Z,14.35
2023-04-14T15:16:29.996Z,14.30
2023-04-14T15:18:59.097Z,14.06
2023-04-14T15:21:26.690Z,13.91
2023-04-14T15:23:54.250Z,13.71
2023-04-14T15:26:22.670Z,13.32
2023-04-14T15:28:50.318Z,13.09
2023-04-14T15:31:18.023Z,12.98
2023-04-14T15:33:46.220Z,12.86
2023-04-14T15:36:15.790Z,12.78
2023-04-14T15:38:43.336Z,12.65
2023-04-14T15:41:11.418Z,12.56
2023-04-14T15:43:39.040Z,12.61
2023-04-14T15:46:06.993Z,12.62
2023-04-14T15:48:34.600Z,12.66
2023-04-14T15:51:02.463Z,12.73
2023-04-14T15:53:31.418Z,12.83
2023-04-14T15:55:59.090Z,12.89
2023-04-14T15:58:27.314Z,13.01
2023-04-14T16:00:55.024Z,13.06
2023-04-14T16:03:22.676Z,13.08
2023-04-14T16:05:50.617Z,13.11
2023-04-14T16:08:19.084Z,13.03
2023-04-14T16:10:48.828Z,12.80
2023-04-14T16:13:16.849Z,12.61
2023-04-14T16:15:44.687Z,12.46
2023-04-14T16:18:12.267Z,12.28
2023-04-14T16:20:40.157Z,12.09
2023-04-14T16:23:07.745Z,12.00
2023-04-14T16:25:35.681Z,11.98
2023-04-14T16:28:04.604Z,12.01
2023-04-14T16:30:32.682Z,11.96
2023-04-14T16:33:00.305Z,11.84
2023-04-14T16:35:27.885Z,11.79
2023-04-14T16:37:55.443Z,11.77
2023-04-14T16:40:23.305Z,11.75
2023-04-14T16:42:51.078Z,11.73
2023-04-14T16:45:20.782Z,11.72
2023-04-14T16:47:48.521Z,11.73
2023-04-14T16:50:16.256Z,11.72
2023-04-14T16:52:43.985Z,11.77
2023-04-14T16:55:12.482Z,11.75
2023-04-14T16:57:40.164Z,11.64
2023-04-14T17:00:12.003Z,11.63
2023-04-14T17:02:41.982Z,11.59
2023-04-14T17:05:11.165Z,11.56
2023-04-14T17:07:39.076Z,11.57
2023-04-14T17:10:07.360Z,11.56
2023-04-14T17:12:35.485Z,11.61
2023-04-14T17:15:04.424Z,11.60
2023-04-14T17:17:33.913Z,11.55
2023-04-14T17:20:04.030Z,11.51
2023-04-14T17:22:31.849Z,11.51
2023-04-14T17:24:59.760Z,11.48
2023-04-14T17:27:27.374Z,11.44
2023-04-14T17:29:54.921Z,11.30
2023-04-14T17:32:22.901Z,11.35
2023-04-14T17:34:50.877Z,11.35
2023-04-14T17:37:20.106Z,11.34
2023-04-14T17:39:49.131Z,11.32
2023-04-14T17:42:17.033Z,11.15
2023-04-14T17:44:44.595Z,11.11
2023-04-14T17:47:15.574Z,11.08
2023-04-14T17:49:43.791Z,11.04
2023-04-14T17:52:22.303Z,10.94
2023-04-14T17:54:51.494Z,10.82
2023-04-14T17:57:19.766Z,10.67
2023-04-14T17:59:47.386Z,10.55
2023-04-14T18:02:16.090Z,10.44
2023-04-14T18:04:43.665Z,10.27
2023-04-14T18:07:11.344Z,10.16
2023-04-14T18:09:40.686Z,9.90
2023-04-14T18:12:08.383Z,9.64
2023-04-14T18:14:35.941Z,9.50
2023-04-14T18:17:05.078Z,9.48
2023-04-14T18:19:33.338Z,9.30
2023-04-14T18:22:03.119Z,9.19
2023-04-14T18:28:02.670Z,8.99
2023-04-14T18:29:52.115Z,8.92
2023-04-14T18:32:19.778Z,8.93
2023-04-14T18:34:47.417Z,8.96
2023-04-14T18:37:15.848Z,8.96
2023-04-14T18:39:43.553Z,9.00
2023-04-14T18:42:12.662Z,8.89
2023-04-14T18:44:40.257Z,8.96
2023-04-14T18:47:09.331Z,8.96
2023-04-14T18:49:36.906Z,8.93
2023-04-14T18:52:05.776Z,8.90
2023-04-14T18:54:33.708Z,8.79
2023-04-14T18:57:01.851Z,8.95
2023-04-14T18:59:30.763Z,8.91
2023-04-14T19:01:59.577Z,8.82
2023-04-14T19:04:27.383Z,8.80
2023-04-14T19:06:55.258Z,8.81
2023-04-14T19:09:23.202Z,8.78
2023-04-14T19:11:51.055Z,8.77
2023-04-14T19:14:18.608Z,8.78
2023-04-14T19:16:47.771Z,8.80
2023-04-14T19:19:15.616Z,8.83
2023-04-14T19:21:43.649Z,8.89
2023-04-14T19:24:11.263Z,8.82
2023-04-14T19:26:40.875Z,8.80
2023-04-14T19:29:08.469Z,8.93
2023-04-14T19:31:36.356Z,8.99
2023-04-14T19:34:05.411Z,9.03
2023-04-14T19:36:34.388Z,8.99
2023-04-14T19:39:02.345Z,8.93
2023-04-14T19:41:30.147Z,8.81
2023-04-14T19:43:57.914Z,8.84
2023-04-14T19:46:26.220Z,8.69
2023-04-14T19:48:54.480Z,8.56
2023-04-14T19:51:23.536Z,8.64
2023-04-14T19:53:51.628Z,8.70
2023-04-14T19:56:19.896Z,8.75
2023-04-14T19:58:47.452Z,8.51
2023-04-14T20:01:16.212Z,8.41
2023-04-14T20:04:05.692Z,8.48
2023-04-14T20:06:33.907Z,8.51
2023-04-14T20:09:02.020Z,8.47
2023-04-14T20:11:30.826Z,8.37
2023-04-14T20:13:58.397Z,8.38
2023-04-14T20:16:26.401Z,8.38
2023-04-14T20:18:54.120Z,8.32
2023-04-14T20:21:21.836Z,8.31
2023-04-14T20:23:50.881Z,8.30
2023-04-14T20:26:18.575Z,8.21
2023-04-14T20:28:47.492Z,8.11
2023-04-14T20:31:15.763Z,8.08
2023-04-14T20:33:44.216Z,8.13
2023-04-14T20:36:11.954Z,8.15
2023-04-14T20:38:39.538Z,8.10
2023-04-14T20:41:09.082Z,8.01
2023-04-14T20:43:36.741Z,7.90
2023-04-14T20:46:05.373Z,7.86
2023-04-14T20:48:33.016Z,7.79
2023-04-14T20:51:01.364Z,7.71
2023-04-14T20:53:29.921Z,7.70
2023-04-14T20:55:57.578Z,7.63
2023-04-14T20:58:26.615Z,7.56
2023-04-14T21:00:54.194Z,7.62
2023-04-14T21:03:23.713Z,7.63
2023-04-14T21:05:51.660Z,7.55
2023-04-14T21:08:19.427Z,7.43
2023-04-14T21:11:15.241Z,7.37
2023-04-14T21:15:29.496Z,7.35
2023-04-14T21:16:24.113Z,7.32
2023-04-14T21:18:51.751Z,7.24
2023-04-14T21:21:19.550Z,7.21
2023-04-14T21:23:47.158Z,7.24
2023-04-14T21:26:14.756Z,7.21
2023-04-14T21:28:43.652Z,7.22
2023-04-14T21:31:11.493Z,7.08
2023-04-14T21:33:41.546Z,6.98
2023-04-14T21:36:10.753Z,6.88
2023-04-14T21:38:39.223Z,6.96
2023-04-14T21:41:07.776Z,6.94
2023-04-14T21:43:36.189Z,6.85
2023-04-14T21:46:05.777Z,6.77
2023-04-14T21:48:33.539Z,6.77
2023-04-14T21:51:01.383Z,6.79
2023-04-14T21:53:29.343Z,6.80
2023-04-14T21:56:00.440Z,6.76
2023-04-14T21:58:37.410Z,6.80
2023-04-14T22:01:07.003Z,6.77
2023-04-14T22:03:37.378Z,6.77
2023-04-14T22:06:05.887Z,6.80
2023-04-14T22:08:33.502Z,6.82
2023-04-14T22:11:01.392Z,6.81
2023-04-14T22:13:28.958Z,6.79
2023-04-14T22:15:56.545Z,6.75
2023-04-14T22:18:25.874Z,6.67
2023-04-14T22:20:53.435Z,6.77
2023-04-14T22:23:21.696Z,6.61
2023-04-14T22:25:49.277Z,6.67
2023-04-14T22:28:16.957Z,6.72
2023-04-14T22:30:44.746Z,6.72
2023-04-14T22:33:12.364Z,6.71
2023-04-14T22:35:41.536Z,6.66
2023-04-14T22:38:09.113Z,6.53
2023-04-14T22:40:36.844Z,6.54
2023-04-14T22:43:08.921Z,6.56
2023-04-14T22:45:37.637Z,6.55
2023-04-14T22:48:06.259Z,6.40
2023-04-14T22:50:34.008Z,6.42
2023-04-14T22:53:02.920Z,6.36
2023-04-14T22:55:30.692Z,6.31
2023-04-14T22:57:58.596Z,6.04
2023-04-14T23:00:26.601Z,6.07
2023-04-14T23:02:55.913Z,5.95
2023-04-14T23:05:23.605Z,5.96
2023-04-14T23:07:51.530Z,5.89
2023-04-14T23:10:20.899Z,5.93
2023-04-14T23:12:48.685Z,5.87
2023-04-14T23:15:16.288Z,5.85
2023-04-14T23:17:43.966Z,5.91
2023-04-14T23:20:12.729Z,5.94
2023-04-14T23:22:40.660Z,5.86
2023-04-14T23:25:09.327Z,5.90
2023-04-14T23:27:38.259Z,5.92
2023-04-14T23:30:07.222Z,5.95
2023-04-14T23:32:34.805Z,6.02
2023-04-14T23:35:03.371Z,6.04
2023-04-14T23:37:31.241Z,6.09
2023-04-14T23:39:58.811Z,6.03
2023-04-14T23:42:27.022Z,5.97
2023-04-14T23:44:57.096Z,5.95
2023-04-14T23:47:24.966Z,6.01
2023-04-14T23:49:53.299Z,6.08
2023-04-14T23:52:21.217Z,6.12
2023-04-14T23:54:49.008Z,6.15
2023-04-14T23:57:16.860Z,6.14
2023-04-14T23:59:44.654Z,6.18
